DEMHO EDLW-EDLW

Flight info

Callsign DEMHO
Flight time N/A
Altitude
Route DCT
Aircraft DA40

Departure

Time 2026-04-29 19:19
Airport Dortmund Airport (EDLW)

Arrival

Time N/A
Airport Dortmund Airport (EDLW)
Time Latitude Longitude Altitude Speed Heading
2026-04-29 19:12 51.51254 7.60556 457 ft 0 kts 103°
2026-04-29 19:15 51.51250 7.60557 458 ft 3 kts 224°
2026-04-29 19:15 51.51221 7.60406 454 ft 16 kts 252°
2026-04-29 19:15 51.51161 7.60220 455 ft 15 kts 253°
2026-04-29 19:16 51.51202 7.60174 448 ft 15 kts 61°
2026-04-29 19:16 51.51255 7.60332 443 ft 17 kts 60°
2026-04-29 19:16 51.51328 7.60546 439 ft 23 kts 60°
2026-04-29 19:16 51.51396 7.60733 433 ft 21 kts 58°
2026-04-29 19:17 51.51469 7.60939 430 ft 21 kts 58°
2026-04-29 19:17 51.51547 7.61070 426 ft 12 kts 332°
2026-04-29 19:17 51.51566 7.60926 417 ft 17 kts 234°
2026-04-29 19:17 51.51527 7.60671 416 ft 22 kts 273°
2026-04-29 19:18 51.51589 7.60605 415 ft 7 kts 358°
2026-04-29 19:18 51.51626 7.60641 416 ft 14 kts 59°
2026-04-29 19:18 51.51818 7.61199 570 ft 52 kts 59°
2026-04-29 19:18 51.52052 7.61791 720 ft 70 kts 61°
2026-04-29 19:19 51.52025 7.62493 920 ft 81 kts 135°
2026-04-29 19:19 51.51682 7.62817 1020 ft 89 kts 141°
2026-04-29 19:19 51.51093 7.63273 1175 ft 100 kts 167°
2026-04-29 19:19 51.50326 7.62401 1283 ft 113 kts 244°
2026-04-29 19:20 51.50132 7.61614 1325 ft 108 kts 251°
2026-04-29 19:20 51.49901 7.60473 1309 ft 106 kts 248°
2026-04-29 19:20 51.49632 7.59392 1307 ft 101 kts 244°
2026-04-29 19:20 51.49465 7.58389 1299 ft 85 kts 284°
2026-04-29 19:21 51.49849 7.57796 1170 ft 83 kts 340°
2026-04-29 19:21 51.50372 7.57451 1165 ft 75 kts
2026-04-29 19:21 51.50675 7.57902 1072 ft 69 kts 59°
2026-04-29 19:21 51.50926 7.58608 968 ft 73 kts 66°
2026-04-29 19:22 51.51172 7.59347 722 ft 77 kts 59°
2026-04-29 19:22 51.51446 7.60060 828 ft 73 kts 63°
2026-04-29 19:22 51.51711 7.60833 1081 ft 69 kts 66°
2026-04-29 19:22 51.51916 7.61583 1339 ft 81 kts 73°
2026-04-29 19:23 51.52263 7.62418 1309 ft 79 kts 80°
2026-04-29 19:23 51.52035 7.62969 1346 ft 71 kts 143°
2026-04-29 19:23 51.51573 7.63279 1260 ft 72 kts 152°
2026-04-29 19:23 51.51108 7.63416 1245 ft 70 kts 174°
2026-04-29 19:24 51.50671 7.62975 1166 ft 83 kts 225°
2026-04-29 19:24 51.50490 7.62068 1080 ft 89 kts 266°
2026-04-29 19:24 51.50402 7.61108 995 ft 88 kts 257°
2026-04-29 19:24 51.50204 7.60188 926 ft 87 kts 248°